createdAt,value
2018-12-11T00:01:04.699Z,6.16
2018-12-11T00:03:33.789Z,6.16
2018-12-11T00:06:02.507Z,6.13
2018-12-11T00:08:31.851Z,6.12
2018-12-11T00:11:00.923Z,6.10
2018-12-11T00:13:30.214Z,6.10
2018-12-11T00:15:59.283Z,6.10
2018-12-11T00:18:28.005Z,6.08
2018-12-11T00:20:57.160Z,6.05
2018-12-11T00:23:26.170Z,6.03
2018-12-11T00:25:55.128Z,6.05
2018-12-11T00:28:24.189Z,6.04
2018-12-11T00:30:53.078Z,6.03
2018-12-11T00:33:21.723Z,6.00
2018-12-11T00:35:50.814Z,6.03
2018-12-11T00:38:19.557Z,6.02
2018-12-11T00:40:48.617Z,6.00
2018-12-11T00:43:17.507Z,6.01
2018-12-11T00:45:46.410Z,6.01
2018-12-11T00:48:15.493Z,5.99
2018-12-11T00:50:44.534Z,5.99
2018-12-11T00:53:13.282Z,6.00
2018-12-11T00:55:42.364Z,6.00
2018-12-11T00:58:11.507Z,6.00
2018-12-11T01:00:40.550Z,5.97
2018-12-11T01:03:09.565Z,5.93
2018-12-11T01:05:38.739Z,5.88
2018-12-11T01:08:07.721Z,5.85
2018-12-11T01:10:37.063Z,5.85
2018-12-11T01:13:05.841Z,5.81
2018-12-11T01:15:35.117Z,5.78
2018-12-11T01:18:03.951Z,5.77
2018-12-11T01:20:32.919Z,5.75
2018-12-11T01:23:02.127Z,5.74
2018-12-11T01:25:30.935Z,5.71
2018-12-11T01:28:00.128Z,5.72
2018-12-11T01:30:28.847Z,5.66
2018-12-11T01:32:57.889Z,5.61
2018-12-11T01:35:27.077Z,5.57
2018-12-11T01:37:55.969Z,5.56
2018-12-11T01:40:24.913Z,5.60
2018-12-11T01:42:53.941Z,5.59
2018-12-11T01:45:22.755Z,5.58
2018-12-11T01:47:51.653Z,5.60
2018-12-11T01:50:20.457Z,5.57
2018-12-11T01:52:49.082Z,5.55
2018-12-11T01:55:18.004Z,5.48
2018-12-11T01:57:47.341Z,5.47
2018-12-11T02:00:16.157Z,5.39
2018-12-11T02:02:45.289Z,5.36
2018-12-11T02:05:14.016Z,5.25
2018-12-11T02:07:43.063Z,5.21
2018-12-11T02:10:12.771Z,5.14
2018-12-11T02:12:41.537Z,5.11
2018-12-11T02:15:10.447Z,5.08
2018-12-11T02:17:39.523Z,5.09
2018-12-11T02:20:09.492Z,5.10
2018-12-11T02:22:38.716Z,5.13
2018-12-11T02:25:07.631Z,5.08
2018-12-11T02:27:36.358Z,5.10
2018-12-11T02:30:05.907Z,5.08
2018-12-11T02:32:34.726Z,5.10
2018-12-11T02:35:03.934Z,5.12
2018-12-11T02:37:33.053Z,5.10
2018-12-11T02:40:02.164Z,5.16
2018-12-11T02:42:31.270Z,5.12
2018-12-11T02:44:59.992Z,5.09
2018-12-11T02:47:29.002Z,5.07
2018-12-11T02:49:57.771Z,5.01
2018-12-11T02:52:26.637Z,4.95
2018-12-11T02:54:55.540Z,4.94
2018-12-11T02:57:24.676Z,4.90
2018-12-11T02:59:53.711Z,4.88
2018-12-11T03:02:22.774Z,4.92
2018-12-11T03:04:51.438Z,4.91
2018-12-11T03:07:20.154Z,4.94
2018-12-11T03:09:48.924Z,4.90
2018-12-11T03:12:18.043Z,4.89
2018-12-11T03:14:47.111Z,4.91
2018-12-11T03:17:16.229Z,4.90
2018-12-11T03:19:45.310Z,4.88
2018-12-11T03:22:14.097Z,4.89
2018-12-11T03:24:42.895Z,4.89
2018-12-11T03:27:12.001Z,4.88
2018-12-11T03:29:41.249Z,4.89
2018-12-11T03:32:10.283Z,4.89
2018-12-11T03:34:39.281Z,4.89
2018-12-11T03:37:08.374Z,4.84
2018-12-11T03:39:37.096Z,4.87
2018-12-11T03:42:06.087Z,4.84
2018-12-11T03:44:35.049Z,4.89
2018-12-11T03:47:04.552Z,4.89
2018-12-11T03:49:33.467Z,4.84
2018-12-11T03:52:02.162Z,4.84
2018-12-11T03:54:31.237Z,4.82
2018-12-11T03:56:59.963Z,4.89
2018-12-11T03:59:28.685Z,4.88
2018-12-11T04:01:57.783Z,4.84
2018-12-11T04:04:26.894Z,4.82
2018-12-11T04:06:55.840Z,4.85
2018-12-11T04:09:24.593Z,4.83
2018-12-11T04:11:53.897Z,4.90
2018-12-11T04:14:23.104Z,4.87
2018-12-11T04:16:52.067Z,4.89
2018-12-11T04:19:20.758Z,4.85
2018-12-11T04:21:49.450Z,4.86
2018-12-11T04:24:18.310Z,4.86
2018-12-11T04:26:47.297Z,4.87
2018-12-11T04:29:16.426Z,4.87
2018-12-11T04:31:45.543Z,4.87
2018-12-11T04:34:14.476Z,4.87
2018-12-11T04:36:44.334Z,4.87
2018-12-11T04:39:13.247Z,4.89
2018-12-11T04:41:42.509Z,4.86
2018-12-11T04:44:11.694Z,4.87
2018-12-11T04:46:40.462Z,4.85
2018-12-11T04:49:09.290Z,4.85
2018-12-11T04:51:38.003Z,4.81
2018-12-11T04:54:07.437Z,4.79
2018-12-11T04:56:36.662Z,4.78
2018-12-11T04:59:05.383Z,4.74
2018-12-11T05:01:34.548Z,4.72
2018-12-11T05:04:03.637Z,4.74
2018-12-11T05:06:33.491Z,4.69
2018-12-11T05:09:02.898Z,4.63
2018-12-11T05:11:31.736Z,4.61
2018-12-11T05:14:00.980Z,4.58
2018-12-11T05:16:29.924Z,4.57
2018-12-11T05:18:58.919Z,4.55
2018-12-11T05:21:28.025Z,4.54
2018-12-11T05:23:56.755Z,4.51
2018-12-11T05:26:25.817Z,4.54
2018-12-11T05:28:54.922Z,4.51
2018-12-11T05:31:23.604Z,4.47
2018-12-11T05:33:52.706Z,4.46
2018-12-11T05:36:21.579Z,4.48
2018-12-11T05:38:50.493Z,4.50
2018-12-11T05:41:19.345Z,4.55
2018-12-11T05:43:48.324Z,4.61
2018-12-11T05:46:17.183Z,4.59
2018-12-11T05:48:46.392Z,4.62
2018-12-11T05:51:15.444Z,4.62
2018-12-11T05:53:50.469Z,4.61
2018-12-11T05:56:19.226Z,4.61
2018-12-11T05:58:48.188Z,4.61
2018-12-11T06:01:17.362Z,4.63
2018-12-11T06:03:46.303Z,4.69
2018-12-11T06:06:15.391Z,4.70
2018-12-11T06:08:44.592Z,4.69
2018-12-11T06:11:13.658Z,4.70
2018-12-11T06:13:42.471Z,4.69
2018-12-11T06:16:11.324Z,4.71
2018-12-11T06:18:40.133Z,4.70
2018-12-11T06:21:09.535Z,4.71
2018-12-11T06:23:40.104Z,4.74
2018-12-11T06:26:09.163Z,4.78
2018-12-11T06:28:37.925Z,4.82
2018-12-11T06:31:06.955Z,4.87
2018-12-11T06:33:36.154Z,4.90
2018-12-11T06:36:05.205Z,4.96
2018-12-11T06:38:34.197Z,5.03
2018-12-11T06:41:03.396Z,5.10
2018-12-11T06:43:32.404Z,5.12
2018-12-11T06:46:01.292Z,5.18
2018-12-11T06:48:30.202Z,5.24
2018-12-11T06:50:58.905Z,5.27
2018-12-11T06:53:29.185Z,5.29
2018-12-11T06:55:58.369Z,5.27
2018-12-11T06:58:27.407Z,5.31
2018-12-11T07:00:56.474Z,5.37
2018-12-11T07:03:25.481Z,5.39
2018-12-11T07:05:54.464Z,5.46
2018-12-11T07:08:23.264Z,5.48
2018-12-11T07:10:51.957Z,5.47
2018-12-11T07:13:21.043Z,5.51
2018-12-11T07:15:50.240Z,5.52
2018-12-11T07:18:19.178Z,5.55
2018-12-11T07:20:48.749Z,5.58
2018-12-11T07:23:17.836Z,5.61
2018-12-11T07:25:46.942Z,5.67
2018-12-11T07:28:15.988Z,5.70
2018-12-11T07:30:45.102Z,5.75
2018-12-11T07:33:13.862Z,5.81
2018-12-11T07:35:42.524Z,5.85
2018-12-11T07:38:11.489Z,5.93
2018-12-11T07:40:40.422Z,6.00
2018-12-11T07:43:09.201Z,6.05
2018-12-11T07:45:38.064Z,6.11
2018-12-11T07:48:06.826Z,6.18
2018-12-11T07:50:36.137Z,6.22
2018-12-11T07:53:06.608Z,6.27
2018-12-11T07:55:36.092Z,6.33
2018-12-11T07:58:05.256Z,6.37
2018-12-11T08:00:34.148Z,6.43
2018-12-11T08:03:03.155Z,6.41
2018-12-11T08:05:32.145Z,6.29
2018-12-11T08:08:01.249Z,6.30
2018-12-11T08:10:30.059Z,6.27
2018-12-11T08:12:59.126Z,6.31
2018-12-11T08:15:28.432Z,6.39
2018-12-11T08:17:57.355Z,6.46
2018-12-11T08:20:26.085Z,6.56
2018-12-11T08:22:55.069Z,6.63
2018-12-11T08:25:24.307Z,6.64
2018-12-11T08:27:53.423Z,6.67
2018-12-11T08:30:22.167Z,6.71
2018-12-11T08:32:51.686Z,6.71
2018-12-11T08:35:20.901Z,6.83
2018-12-11T08:37:50.057Z,6.83
2018-12-11T08:40:19.077Z,6.85
2018-12-11T08:42:47.753Z,6.92
2018-12-11T08:45:16.525Z,7.04
2018-12-11T08:47:45.560Z,7.08
2018-12-11T08:50:14.662Z,7.05
2018-12-11T08:52:43.347Z,7.06
2018-12-11T08:55:12.077Z,7.19
2018-12-11T08:57:42.369Z,7.21
2018-12-11T09:00:11.333Z,7.25
2018-12-11T09:02:40.912Z,7.34
2018-12-11T09:05:10.435Z,7.35
2018-12-11T09:07:39.133Z,7.40
2018-12-11T09:10:08.337Z,7.49
2018-12-11T09:12:37.352Z,7.48
2018-12-11T09:15:06.752Z,7.29
2018-12-11T09:17:35.813Z,7.24
2018-12-11T09:20:04.770Z,7.29
2018-12-11T09:22:33.650Z,7.34
2018-12-11T09:25:02.372Z,7.29
2018-12-11T09:27:31.399Z,7.37
2018-12-11T09:30:00.595Z,7.46
2018-12-11T09:32:29.582Z,7.42
2018-12-11T09:34:58.336Z,7.46
2018-12-11T09:37:27.411Z,7.50
2018-12-11T09:39:57.074Z,7.45
2018-12-11T09:42:28.114Z,7.50
2018-12-11T09:44:57.304Z,7.60
2018-12-11T09:47:26.214Z,7.58
2018-12-11T09:49:55.012Z,7.59
2018-12-11T09:52:23.786Z,7.69
2018-12-11T09:54:52.622Z,7.78
2018-12-11T09:57:21.681Z,7.79
2018-12-11T09:59:50.758Z,7.82
2018-12-11T10:02:19.675Z,7.85
2018-12-11T10:04:48.661Z,7.82
2018-12-11T10:07:17.711Z,7.93
2018-12-11T10:09:47.357Z,8.05
2018-12-11T10:12:16.936Z,7.97
2018-12-11T10:14:45.561Z,8.03
2018-12-11T10:17:15.235Z,8.02
2018-12-11T10:19:44.541Z,7.92
2018-12-11T10:22:13.666Z,7.88
2018-12-11T10:24:43.073Z,7.86
2018-12-11T10:27:11.833Z,7.94
2018-12-11T10:29:40.541Z,7.89
2018-12-11T10:32:09.637Z,7.92
2018-12-11T10:34:38.331Z,8.01
2018-12-11T10:37:07.143Z,8.10
2018-12-11T10:39:36.093Z,8.15
2018-12-11T10:42:05.312Z,8.07
2018-12-11T10:44:34.378Z,8.15
2018-12-11T10:47:03.404Z,8.10
2018-12-11T10:49:32.651Z,8.09
2018-12-11T10:52:01.408Z,8.12
2018-12-11T10:54:30.554Z,8.07
2018-12-11T10:56:59.395Z,8.10
2018-12-11T10:59:28.214Z,8.19
2018-12-11T11:01:59.401Z,8.17
2018-12-11T11:04:28.614Z,8.27
2018-12-11T11:06:57.260Z,8.35
2018-12-11T11:09:26.139Z,8.47
2018-12-11T11:11:55.173Z,8.58
2018-12-11T11:14:25.243Z,8.53
2018-12-11T11:16:54.540Z,8.33
2018-12-11T11:19:23.571Z,8.24
2018-12-11T11:21:52.667Z,8.25
2018-12-11T11:24:21.384Z,8.25
2018-12-11T11:26:50.972Z,8.23
2018-12-11T11:29:19.951Z,8.30
2018-12-11T11:31:50.435Z,8.37
2018-12-11T11:34:19.157Z,8.37
2018-12-11T11:36:48.204Z,8.24
2018-12-11T11:39:16.989Z,8.25
2018-12-11T11:41:46.228Z,8.37
2018-12-11T11:44:15.154Z,8.51
2018-12-11T11:46:43.905Z,8.47
2018-12-11T11:49:12.591Z,8.33
2018-12-11T11:51:41.689Z,8.25
2018-12-11T11:54:10.440Z,8.29
2018-12-11T11:56:39.512Z,8.39
2018-12-11T11:59:08.211Z,8.35
2018-12-11T12:01:37.273Z,8.36
2018-12-11T12:04:06.365Z,8.36
2018-12-11T12:06:35.459Z,8.43
2018-12-11T12:09:05.496Z,8.41
2018-12-11T12:11:34.472Z,8.48
2018-12-11T12:14:03.754Z,8.52
2018-12-11T12:16:32.774Z,8.41
2018-12-11T12:19:01.534Z,8.39
2018-12-11T12:21:30.462Z,8.33
2018-12-11T12:23:59.249Z,8.36
2018-12-11T12:26:28.468Z,8.38
2018-12-11T12:28:57.642Z,8.31
2018-12-11T12:31:26.682Z,8.24
2018-12-11T12:33:55.635Z,8.19
2018-12-11T12:36:24.414Z,8.23
2018-12-11T12:38:53.487Z,8.20
2018-12-11T12:41:23.358Z,8.20
2018-12-11T12:43:52.446Z,8.15
2018-12-11T12:46:21.851Z,8.17
2018-12-11T12:48:51.752Z,8.13
2018-12-11T12:51:20.815Z,8.18
2018-12-11T12:53:49.561Z,8.21
2018-12-11T12:56:18.343Z,8.22
2018-12-11T12:58:47.416Z,8.17
2018-12-11T13:01:16.421Z,8.10
2018-12-11T13:03:45.784Z,8.11
2018-12-11T13:06:14.477Z,8.15
2018-12-11T13:08:43.418Z,8.17
2018-12-11T13:11:12.592Z,8.16
2018-12-11T13:13:41.648Z,8.15
2018-12-11T13:16:10.436Z,8.00
2018-12-11T13:18:39.515Z,7.92
2018-12-11T13:21:08.541Z,7.88
2018-12-11T13:23:37.771Z,7.85
2018-12-11T13:26:06.444Z,7.81
2018-12-11T13:28:35.453Z,7.80
2018-12-11T13:31:04.129Z,7.79
2018-12-11T13:33:33.444Z,7.77
2018-12-11T13:36:02.387Z,7.75
2018-12-11T13:38:31.450Z,7.74
2018-12-11T13:41:00.093Z,7.72
2018-12-11T13:43:29.077Z,7.67
2018-12-11T13:45:58.700Z,7.59
2018-12-11T13:48:27.870Z,7.52
2018-12-11T13:50:57.034Z,7.44
2018-12-11T13:53:26.223Z,7.38
2018-12-11T13:55:55.188Z,7.29
2018-12-11T13:58:23.860Z,7.19
2018-12-11T14:00:52.853Z,7.15
2018-12-11T14:03:21.796Z,7.08
2018-12-11T14:05:50.846Z,7.05
2018-12-11T14:08:19.957Z,7.02
2018-12-11T14:10:48.866Z,7.04
2018-12-11T14:13:17.935Z,6.98
2018-12-11T14:15:46.694Z,6.88
2018-12-11T14:18:15.393Z,6.80
2018-12-11T14:20:44.452Z,6.74
2018-12-11T14:23:13.261Z,6.66
2018-12-11T14:25:42.283Z,6.63
2018-12-11T14:28:11.247Z,6.56
2018-12-11T14:30:40.385Z,6.52
2018-12-11T14:33:09.376Z,6.46
2018-12-11T14:35:38.126Z,6.38
2018-12-11T14:38:06.915Z,6.34
2018-12-11T14:40:36.139Z,6.27
2018-12-11T14:43:04.846Z,6.19
2018-12-11T14:45:33.542Z,6.12
2018-12-11T14:48:03.439Z,6.08
2018-12-11T14:50:33.406Z,6.04
2018-12-11T14:53:03.203Z,6.00
2018-12-11T14:55:32.204Z,5.92
2018-12-11T14:58:01.168Z,5.83
2018-12-11T15:00:30.136Z,5.83
2018-12-11T15:02:59.545Z,5.77
2018-12-11T15:05:28.441Z,5.76
2018-12-11T15:07:57.789Z,5.75
2018-12-11T15:10:27.279Z,5.73
2018-12-11T15:12:56.899Z,5.65
2018-12-11T15:15:25.847Z,5.62
2018-12-11T15:17:55.607Z,5.56
2018-12-11T15:20:24.996Z,5.56
2018-12-11T15:22:54.045Z,5.59
2018-12-11T15:25:23.257Z,5.54
2018-12-11T15:27:52.481Z,5.60
2018-12-11T15:30:21.294Z,5.52
2018-12-11T15:32:50.524Z,5.56
2018-12-11T15:35:19.475Z,5.46
2018-12-11T15:37:49.196Z,5.44
2018-12-11T15:40:17.974Z,5.39
2018-12-11T15:42:47.330Z,5.38
2018-12-11T15:45:16.347Z,5.33
2018-12-11T15:47:45.319Z,5.35
2018-12-11T15:50:14.351Z,5.30
2018-12-11T15:52:43.512Z,5.21
2018-12-11T15:55:12.654Z,5.20
2018-12-11T15:57:41.818Z,5.18
2018-12-11T16:00:12.298Z,5.11
2018-12-11T16:02:41.035Z,5.08
2018-12-11T16:05:10.086Z,5.12
2018-12-11T16:07:39.198Z,5.16
2018-12-11T16:10:08.756Z,5.14
2018-12-11T16:12:38.038Z,5.16
2018-12-11T16:15:06.965Z,5.13
2018-12-11T16:17:35.796Z,5.16
2018-12-11T16:20:05.443Z,5.16
2018-12-11T16:22:34.727Z,5.18
2018-12-11T16:25:03.676Z,5.18
2018-12-11T16:27:32.903Z,5.17
2018-12-11T16:30:02.176Z,5.16
2018-12-11T16:32:31.228Z,5.14
2018-12-11T16:35:00.154Z,5.12
2018-12-11T16:37:29.736Z,5.06
2018-12-11T16:40:04.584Z,5.03
2018-12-11T16:42:30.345Z,5.05
2018-12-11T16:44:59.098Z,4.99
2018-12-11T16:47:27.871Z,5.02
2018-12-11T16:49:56.953Z,4.97
2018-12-11T16:52:26.515Z,4.99
2018-12-11T16:54:55.397Z,4.95
2018-12-11T16:57:24.416Z,4.96
2018-12-11T16:59:53.438Z,4.98
2018-12-11T17:02:22.921Z,4.97
2018-12-11T17:04:52.010Z,4.97
2018-12-11T17:07:20.989Z,4.97
2018-12-11T17:09:50.267Z,4.92
2018-12-11T17:12:19.323Z,4.89
2018-12-11T17:14:48.425Z,4.87
2018-12-11T17:17:17.387Z,4.84
2018-12-11T17:19:46.644Z,4.86
2018-12-11T17:22:15.681Z,4.81
2018-12-11T17:24:44.381Z,4.82
2018-12-11T17:27:13.450Z,4.85
2018-12-11T17:29:43.235Z,4.86
2018-12-11T17:32:12.419Z,4.84
2018-12-11T17:34:41.584Z,4.83
2018-12-11T17:37:10.378Z,4.82
2018-12-11T17:39:39.274Z,4.82
2018-12-11T17:42:08.165Z,4.81
2018-12-11T17:44:37.476Z,4.78
2018-12-11T17:47:06.540Z,4.81
2018-12-11T17:49:35.671Z,4.80
2018-12-11T17:52:04.855Z,4.79
2018-12-11T17:54:33.924Z,4.83
2018-12-11T17:57:02.791Z,4.84
2018-12-11T17:59:31.880Z,4.87
2018-12-11T18:02:05.223Z,4.91
2018-12-11T18:04:34.370Z,4.94
2018-12-11T18:07:03.074Z,4.92
2018-12-11T18:09:32.052Z,4.90
2018-12-11T18:12:01.146Z,4.87
2018-12-11T18:14:30.379Z,4.82
2018-12-11T18:16:59.394Z,4.83
2018-12-11T18:19:28.547Z,4.80
2018-12-11T18:21:57.553Z,4.75
2018-12-11T18:24:26.313Z,4.72
2018-12-11T18:26:55.461Z,4.72
2018-12-11T18:29:24.648Z,4.72
2018-12-11T18:31:53.603Z,4.71
2018-12-11T18:34:22.923Z,4.67
2018-12-11T18:36:51.836Z,4.63
2018-12-11T18:39:20.792Z,4.67
2018-12-11T18:41:49.826Z,4.66
2018-12-11T18:44:19.026Z,4.66
2018-12-11T18:46:48.282Z,4.59
2018-12-11T18:49:16.943Z,4.55
2018-12-11T18:51:45.925Z,4.55
2018-12-11T18:54:15.171Z,4.52
2018-12-11T18:56:43.984Z,4.53
2018-12-11T18:59:13.049Z,4.53
2018-12-11T19:01:42.739Z,4.54
2018-12-11T19:04:11.444Z,4.56
2018-12-11T19:06:40.167Z,4.57
2018-12-11T19:09:09.176Z,4.58
2018-12-11T19:11:38.197Z,4.55
2018-12-11T19:14:07.109Z,4.57
2018-12-11T19:16:36.054Z,4.57
2018-12-11T19:19:05.433Z,4.60
2018-12-11T19:21:34.235Z,4.61
2018-12-11T19:24:09.757Z,4.59
2018-12-11T19:26:38.644Z,4.55
2018-12-11T19:29:07.630Z,4.56
2018-12-11T19:31:36.886Z,4.57
2018-12-11T19:34:06.061Z,4.57
2018-12-11T19:36:35.163Z,4.55
2018-12-11T19:39:05.359Z,4.52
2018-12-11T19:41:34.058Z,4.53
2018-12-11T19:44:03.156Z,4.53
2018-12-11T19:46:32.444Z,4.54
2018-12-11T19:49:01.668Z,4.52
2018-12-11T19:51:30.644Z,4.52
2018-12-11T19:53:59.655Z,4.55
2018-12-11T19:56:28.639Z,4.51
2018-12-11T19:58:57.657Z,4.52
2018-12-11T20:01:26.479Z,4.53
2018-12-11T20:03:55.483Z,4.51
2018-12-11T20:06:24.626Z,4.53
2018-12-11T20:08:53.536Z,4.54
2018-12-11T20:11:22.346Z,4.53
2018-12-11T20:13:51.587Z,4.50
2018-12-11T20:16:20.333Z,4.48
2018-12-11T20:18:49.130Z,4.45
2018-12-11T20:21:18.271Z,4.41
2018-12-11T20:23:47.629Z,4.38
2018-12-11T20:26:16.433Z,4.35
2018-12-11T20:28:45.371Z,4.33
2018-12-11T20:31:14.472Z,4.31
2018-12-11T20:33:43.653Z,4.29
2018-12-11T20:36:12.411Z,4.26
2018-12-11T20:38:42.352Z,4.25
2018-12-11T20:41:11.635Z,4.25
2018-12-11T20:43:40.742Z,4.20
2018-12-11T20:46:09.937Z,4.18
2018-12-11T20:48:38.875Z,4.18
2018-12-11T20:51:07.714Z,4.16
2018-12-11T20:53:36.819Z,4.10
2018-12-11T20:56:05.940Z,4.06
2018-12-11T20:58:35.023Z,4.01
2018-12-11T21:01:03.986Z,3.98
2018-12-11T21:03:32.695Z,3.93
2018-12-11T21:06:01.630Z,3.90
2018-12-11T21:08:31.578Z,3.85
2018-12-11T21:11:00.709Z,3.85
2018-12-11T21:13:30.064Z,3.82
2018-12-11T21:15:59.136Z,3.78
2018-12-11T21:18:28.807Z,3.78
2018-12-11T21:20:58.934Z,3.78
2018-12-11T21:23:28.098Z,3.79
2018-12-11T21:25:57.120Z,3.78
2018-12-11T21:28:26.423Z,3.76
2018-12-11T21:30:55.138Z,3.73
2018-12-11T21:33:24.055Z,3.70
2018-12-11T21:35:53.192Z,3.68
2018-12-11T21:38:22.414Z,3.71
2018-12-11T21:40:51.421Z,3.66
2018-12-11T21:43:20.463Z,3.61
2018-12-11T21:45:49.309Z,3.56
2018-12-11T21:48:18.465Z,3.57
2018-12-11T21:50:47.224Z,3.52
2018-12-11T21:53:16.357Z,3.49
2018-12-11T21:55:45.401Z,3.47
2018-12-11T21:58:14.261Z,3.46
2018-12-11T22:00:43.414Z,3.47
2018-12-11T22:03:12.442Z,3.44
2018-12-11T22:05:41.348Z,3.45
2018-12-11T22:08:10.248Z,3.46
2018-12-11T22:10:39.303Z,3.46
2018-12-11T22:13:08.424Z,3.47
2018-12-11T22:15:37.876Z,3.47
2018-12-11T22:18:07.006Z,3.40
2018-12-11T22:20:36.198Z,3.34
2018-12-11T22:23:05.163Z,3.32
2018-12-11T22:25:33.922Z,3.33
2018-12-11T22:28:03.359Z,3.31
2018-12-11T22:30:32.291Z,3.26
2018-12-11T22:33:01.274Z,3.27
2018-12-11T22:35:30.268Z,3.19
2018-12-11T22:37:59.365Z,3.25
2018-12-11T22:40:28.135Z,3.23
2018-12-11T22:42:56.864Z,3.21
2018-12-11T22:45:25.876Z,3.24
2018-12-11T22:47:54.641Z,3.17
2018-12-11T22:50:23.368Z,3.17
2018-12-11T22:52:52.146Z,3.16
2018-12-11T22:55:21.050Z,3.15
2018-12-11T22:57:50.180Z,3.12
2018-12-11T23:00:19.910Z,3.09
2018-12-11T23:02:49.092Z,3.10
2018-12-11T23:05:18.005Z,3.09
2018-12-11T23:07:47.086Z,3.11
2018-12-11T23:10:16.284Z,3.05
2018-12-11T23:12:45.029Z,2.99
2018-12-11T23:15:14.053Z,3.04
2018-12-11T23:17:43.161Z,3.03
2018-12-11T23:20:12.237Z,3.00
2018-12-11T23:22:41.445Z,2.97
2018-12-11T23:25:10.544Z,3.05
2018-12-11T23:27:39.337Z,3.02
2018-12-11T23:30:08.399Z,3.00
2018-12-11T23:32:37.308Z,3.02
2018-12-11T23:35:07.748Z,3.01
2018-12-11T23:37:37.354Z,2.96
2018-12-11T23:40:06.843Z,2.97
2018-12-11T23:42:35.948Z,2.94
2018-12-11T23:45:05.399Z,2.94
2018-12-11T23:47:34.436Z,2.95
2018-12-11T23:50:03.183Z,2.92
2018-12-11T23:52:31.989Z,2.99
2018-12-11T23:55:00.810Z,3.05
2018-12-11T23:57:29.497Z,2.99
2018-12-11T23:59:58.615Z,2.92
